createdAt,value
2019-01-25T00:01:04.278Z,28.60
2019-01-25T00:03:33.252Z,29.07
2019-01-25T00:06:02.395Z,27.60
2019-01-25T00:08:31.398Z,28.13
2019-01-25T00:11:00.501Z,27.87
2019-01-25T00:13:29.679Z,27.33
2019-01-25T00:15:58.883Z,27.57
2019-01-25T00:18:28.070Z,28.07
2019-01-25T00:20:57.074Z,27.17
2019-01-25T00:23:26.238Z,28.23
2019-01-25T00:25:55.429Z,26.43
2019-01-25T00:28:24.628Z,26.37
2019-01-25T00:30:53.666Z,25.90
2019-01-25T00:33:22.964Z,26.47
2019-01-25T00:35:53.403Z,26.87
2019-01-25T00:38:22.450Z,28.47
2019-01-25T00:40:51.597Z,27.57
2019-01-25T00:43:20.725Z,26.30
2019-01-25T00:45:49.943Z,26.43
2019-01-25T00:48:19.025Z,26.97
2019-01-25T00:50:48.307Z,28.27
2019-01-25T00:53:18.576Z,27.87
2019-01-25T00:55:47.756Z,28.93
2019-01-25T00:58:16.798Z,28.23
2019-01-25T01:00:45.905Z,26.47
2019-01-25T01:03:15.126Z,24.73
2019-01-25T01:05:44.287Z,26.50
2019-01-25T01:08:13.496Z,25.60
2019-01-25T01:10:42.527Z,26.23
2019-01-25T01:13:11.607Z,26.17
2019-01-25T01:15:40.795Z,26.43
2019-01-25T01:18:09.911Z,25.70
2019-01-25T01:20:39.073Z,26.67
2019-01-25T01:23:08.281Z,25.70
2019-01-25T01:25:37.449Z,25.30
2019-01-25T01:28:06.671Z,25.63
2019-01-25T01:30:35.631Z,23.73
2019-01-25T01:33:04.994Z,25.10
2019-01-25T01:35:34.186Z,24.27
2019-01-25T01:38:03.405Z,25.53
2019-01-25T01:40:34.546Z,25.40
2019-01-25T01:43:03.888Z,25.87
2019-01-25T01:45:33.098Z,24.70
2019-01-25T01:48:02.097Z,25.63
2019-01-25T01:50:31.353Z,24.90
2019-01-25T01:53:02.395Z,24.10
2019-01-25T01:55:31.401Z,25.20
2019-01-25T01:58:00.431Z,24.90
2019-01-25T02:00:29.606Z,24.70
2019-01-25T02:02:58.777Z,25.93
2019-01-25T02:05:27.953Z,25.43
2019-01-25T02:07:57.146Z,26.00
2019-01-25T02:10:29.446Z,25.97
2019-01-25T02:12:58.663Z,25.30
2019-01-25T02:15:27.809Z,27.03
2019-01-25T02:17:56.919Z,24.40
2019-01-25T02:20:28.193Z,25.67
2019-01-25T02:22:57.668Z,26.00
2019-01-25T02:25:26.845Z,26.43
2019-01-25T02:27:56.052Z,24.40
2019-01-25T02:30:26.430Z,24.90
2019-01-25T02:32:55.740Z,25.20
2019-01-25T02:35:25.106Z,26.10
2019-01-25T02:37:54.341Z,25.90
2019-01-25T02:40:25.118Z,26.53
2019-01-25T02:42:54.694Z,27.33
2019-01-25T02:45:23.939Z,27.47
2019-01-25T02:47:53.031Z,27.13
2019-01-25T02:50:22.133Z,25.73
2019-01-25T02:52:51.307Z,27.50
2019-01-25T02:55:20.971Z,27.83
2019-01-25T02:57:50.024Z,26.97
2019-01-25T03:00:24.260Z,27.20
2019-01-25T03:02:54.248Z,28.03
2019-01-25T03:05:24.093Z,28.13
2019-01-25T03:07:53.457Z,27.60
2019-01-25T03:10:28.455Z,27.00
2019-01-25T03:12:55.617Z,27.43
2019-01-25T03:15:26.409Z,28.03
2019-01-25T03:17:55.724Z,25.93
2019-01-25T03:20:25.186Z,28.00
2019-01-25T03:22:54.265Z,27.43
2019-01-25T03:25:25.900Z,27.67
2019-01-25T03:27:55.091Z,28.07
2019-01-25T03:30:25.470Z,28.90
2019-01-25T03:32:54.888Z,28.17
2019-01-25T03:35:25.496Z,29.77
2019-01-25T03:37:55.252Z,29.13
2019-01-25T03:40:26.465Z,28.13
2019-01-25T03:42:55.715Z,26.83
2019-01-25T03:45:25.693Z,29.47
2019-01-25T03:47:54.785Z,28.63
2019-01-25T03:50:26.833Z,27.13
2019-01-25T03:52:56.237Z,28.00
2019-01-25T03:55:25.421Z,27.50
2019-01-25T03:57:54.509Z,27.33
2019-01-25T04:00:25.284Z,27.57
2019-01-25T04:02:54.485Z,27.27
2019-01-25T04:05:23.761Z,28.70
2019-01-25T04:07:52.850Z,28.43
2019-01-25T04:10:23.482Z,26.40
2019-01-25T04:12:52.717Z,26.97
2019-01-25T04:15:23.834Z,27.30
2019-01-25T04:17:53.022Z,27.87
2019-01-25T04:20:22.476Z,26.70
2019-01-25T04:22:52.074Z,26.07
2019-01-25T04:25:22.015Z,26.57
2019-01-25T04:27:51.639Z,25.80
2019-01-25T04:30:25.634Z,26.03
2019-01-25T04:32:54.789Z,26.73
2019-01-25T04:35:24.027Z,25.83
2019-01-25T04:37:53.273Z,27.00
2019-01-25T04:40:22.578Z,26.53
2019-01-25T04:42:51.802Z,27.43
2019-01-25T04:45:21.958Z,25.93
2019-01-25T04:47:51.404Z,26.33
2019-01-25T04:50:22.197Z,27.20
2019-01-25T04:52:51.784Z,26.43
2019-01-25T04:55:38.913Z,26.23
2019-01-25T04:58:15.991Z,26.80
2019-01-25T05:00:45.156Z,26.47
2019-01-25T05:03:14.319Z,25.93
2019-01-25T05:05:43.598Z,25.63
2019-01-25T05:08:17.743Z,27.63
2019-01-25T05:10:46.906Z,27.50
2019-01-25T05:13:16.050Z,28.70
2019-01-25T05:15:45.314Z,28.60
2019-01-25T05:18:14.710Z,28.50
2019-01-25T05:20:43.901Z,27.90
2019-01-25T05:23:15.841Z,28.63
2019-01-25T05:25:44.983Z,26.77
2019-01-25T05:28:15.888Z,27.20
2019-01-25T05:30:59.490Z,27.77
2019-01-25T05:33:28.682Z,27.40
2019-01-25T05:35:57.833Z,28.17
2019-01-25T05:38:27.001Z,28.70
2019-01-25T05:40:56.103Z,27.73
2019-01-25T05:43:26.152Z,28.37
2019-01-25T05:45:55.323Z,28.63
2019-01-25T05:48:29.648Z,27.93
2019-01-25T05:51:02.611Z,28.27
2019-01-25T05:53:31.787Z,28.70
2019-01-25T05:56:00.924Z,27.20
2019-01-25T05:58:29.959Z,27.50
2019-01-25T06:01:00.021Z,27.43
2019-01-25T06:03:29.639Z,28.90
2019-01-25T06:06:03.851Z,26.30
2019-01-25T06:08:43.599Z,28.37
2019-01-25T06:11:11.105Z,28.23
2019-01-25T06:13:41.472Z,29.40
2019-01-25T06:16:10.725Z,27.83
2019-01-25T06:18:42.327Z,27.50
2019-01-25T06:21:11.630Z,28.20
2019-01-25T06:23:40.725Z,27.87
2019-01-25T06:26:11.840Z,27.67
2019-01-25T06:28:40.931Z,27.80
2019-01-25T06:31:10.322Z,29.33
2019-01-25T06:33:43.438Z,27.57
2019-01-25T06:36:12.472Z,30.03
2019-01-25T06:38:41.521Z,27.67
2019-01-25T06:41:10.661Z,28.20
2019-01-25T06:43:39.679Z,28.87
2019-01-25T06:46:08.843Z,28.57
2019-01-25T06:48:38.111Z,29.00
2019-01-25T06:51:07.425Z,28.10
2019-01-25T06:53:36.769Z,29.30
2019-01-25T06:56:06.108Z,29.93
2019-01-25T06:59:00.212Z,29.60
2019-01-25T07:01:51.232Z,28.57
2019-01-25T07:04:20.337Z,27.97
2019-01-25T07:06:49.336Z,29.30
2019-01-25T07:09:18.481Z,28.87
2019-01-25T07:11:51.774Z,28.90
2019-01-25T07:14:18.369Z,28.83
2019-01-25T07:16:47.540Z,29.40
2019-01-25T07:19:16.649Z,28.50
2019-01-25T07:21:45.788Z,29.60
2019-01-25T07:24:15.981Z,29.23
2019-01-25T07:26:45.413Z,31.00
2019-01-25T07:29:14.508Z,30.07
2019-01-25T07:31:43.634Z,30.50
2019-01-25T07:34:12.705Z,31.73
2019-01-25T07:36:41.859Z,31.77
2019-01-25T07:39:23.873Z,32.30
2019-01-25T07:41:59.161Z,31.13
2019-01-25T07:44:23.758Z,31.67
2019-01-25T07:46:53.025Z,30.03
2019-01-25T07:49:22.133Z,31.47
2019-01-25T07:51:51.288Z,30.90
2019-01-25T07:54:20.381Z,31.33
2019-01-25T07:56:49.494Z,29.03
2019-01-25T07:59:18.453Z,30.73
2019-01-25T08:01:47.600Z,31.83
2019-01-25T08:04:16.650Z,31.10
2019-01-25T08:06:45.861Z,29.47
2019-01-25T08:09:14.949Z,29.07
2019-01-25T08:11:44.076Z,27.43
2019-01-25T08:14:13.239Z,23.67
2019-01-25T08:16:42.265Z,24.70
2019-01-25T08:19:11.353Z,25.20
2019-01-25T08:21:40.478Z,23.33
2019-01-25T08:24:09.527Z,23.70
2019-01-25T08:26:39.266Z,22.57
2019-01-25T08:29:08.555Z,27.87
2019-01-25T08:31:37.711Z,29.63
2019-01-25T08:34:06.918Z,30.57
2019-01-25T08:36:36.096Z,30.03
2019-01-25T08:39:08.994Z,30.57
2019-01-25T08:41:38.140Z,30.80
2019-01-25T08:44:07.270Z,33.07
2019-01-25T08:46:36.905Z,33.10
2019-01-25T08:49:06.121Z,30.70
2019-01-25T08:51:35.571Z,33.27
2019-01-25T08:54:05.295Z,31.23
2019-01-25T08:56:34.386Z,30.87
2019-01-25T08:59:03.580Z,33.43
2019-01-25T09:01:32.560Z,31.90
2019-01-25T09:04:01.617Z,30.43
2019-01-25T09:06:30.829Z,31.27
2019-01-25T09:08:59.990Z,31.93
2019-01-25T09:11:29.097Z,29.70
2019-01-25T09:13:58.246Z,31.10
2019-01-25T09:16:27.265Z,30.70
2019-01-25T09:18:56.393Z,30.43
2019-01-25T09:21:25.493Z,30.23
2019-01-25T09:23:54.578Z,33.23
2019-01-25T09:26:23.634Z,33.57
2019-01-25T09:28:52.714Z,34.53
2019-01-25T09:31:22.954Z,33.13
2019-01-25T09:33:52.011Z,32.63
2019-01-25T09:36:21.073Z,32.67
2019-01-25T09:38:50.243Z,32.97
2019-01-25T09:41:19.658Z,33.93
2019-01-25T09:43:48.687Z,32.90
2019-01-25T09:46:17.873Z,31.63
2019-01-25T09:48:47.336Z,34.40
2019-01-25T09:51:16.573Z,33.30
2019-01-25T09:53:45.741Z,32.30
2019-01-25T09:56:14.927Z,31.17
2019-01-25T09:58:45.956Z,32.47
2019-01-25T10:01:15.367Z,31.40
2019-01-25T10:03:44.388Z,33.80
2019-01-25T10:06:13.569Z,33.20
2019-01-25T10:08:42.764Z,34.43
2019-01-25T10:11:11.961Z,31.57
2019-01-25T10:13:41.093Z,32.97
2019-01-25T10:16:10.169Z,23.83
2019-01-25T10:18:39.162Z,26.27
2019-01-25T10:21:08.309Z,30.10
2019-01-25T10:23:39.204Z,26.50
2019-01-25T10:26:08.425Z,27.27
2019-01-25T10:28:38.653Z,26.63
2019-01-25T10:31:07.854Z,26.37
2019-01-25T10:33:37.118Z,23.97
2019-01-25T10:36:06.265Z,25.47
2019-01-25T10:38:35.288Z,25.30
2019-01-25T10:41:04.590Z,25.10
2019-01-25T10:43:33.589Z,25.70
2019-01-25T10:46:02.769Z,24.90
2019-01-25T10:48:31.767Z,24.93
2019-01-25T10:51:00.932Z,27.17
2019-01-25T10:53:29.944Z,25.37
2019-01-25T10:55:59.122Z,24.60
2019-01-25T10:58:28.241Z,23.70
2019-01-25T11:00:57.596Z,22.70
2019-01-25T11:03:27.323Z,22.63
2019-01-25T11:05:56.524Z,19.63
2019-01-25T11:08:25.610Z,18.43
2019-01-25T11:10:54.862Z,18.87
2019-01-25T11:13:24.037Z,19.23
2019-01-25T11:15:53.098Z,19.67
2019-01-25T11:18:22.177Z,18.77
2019-01-25T11:20:51.309Z,17.10
2019-01-25T11:23:20.432Z,19.53
2019-01-25T11:25:51.441Z,19.07
2019-01-25T11:28:20.386Z,21.20
2019-01-25T11:30:49.526Z,21.50
2019-01-25T11:33:18.560Z,21.73
2019-01-25T11:35:49.854Z,21.20
2019-01-25T11:38:19.003Z,21.97
2019-01-25T11:40:48.185Z,21.87
2019-01-25T11:43:18.120Z,23.00
2019-01-25T11:45:48.524Z,22.07
2019-01-25T11:48:17.732Z,18.77
2019-01-25T11:50:46.820Z,18.87
2019-01-25T11:53:15.872Z,18.67
2019-01-25T11:55:45.044Z,19.07
2019-01-25T11:58:14.370Z,18.70
2019-01-25T12:00:46.398Z,19.53
2019-01-25T12:03:15.545Z,17.73
2019-01-25T12:05:44.618Z,19.10
2019-01-25T12:08:14.409Z,20.87
2019-01-25T12:10:45.137Z,19.80
2019-01-25T12:13:16.258Z,19.97
2019-01-25T12:15:47.032Z,19.70
2019-01-25T12:18:16.109Z,19.73
2019-01-25T12:20:45.261Z,19.90
2019-01-25T12:23:14.381Z,19.97
2019-01-25T12:25:43.509Z,18.93
2019-01-25T12:28:13.567Z,19.23
2019-01-25T12:30:42.891Z,18.80
2019-01-25T12:33:12.037Z,19.87
2019-01-25T12:35:43.049Z,19.67
2019-01-25T12:38:12.272Z,19.40
2019-01-25T12:40:42.430Z,21.17
2019-01-25T12:43:11.927Z,21.13
2019-01-25T12:45:41.192Z,20.70
2019-01-25T12:48:10.444Z,20.70
2019-01-25T12:50:48.969Z,20.93
2019-01-25T12:53:16.866Z,20.33
2019-01-25T12:55:45.909Z,22.33
2019-01-25T12:58:14.957Z,21.20
2019-01-25T13:00:44.040Z,21.97
2019-01-25T13:03:13.217Z,22.37
2019-01-25T13:05:43.305Z,23.37
2019-01-25T13:08:12.476Z,21.77
2019-01-25T13:10:41.569Z,22.67
2019-01-25T13:13:10.672Z,23.60
2019-01-25T13:15:39.824Z,22.70
2019-01-25T13:18:08.968Z,24.27
2019-01-25T13:20:39.659Z,26.07
2019-01-25T13:23:09.048Z,23.30
2019-01-25T13:25:38.116Z,23.70
2019-01-25T13:28:07.203Z,24.00
2019-01-25T13:30:36.333Z,22.13
2019-01-25T13:33:05.734Z,22.63
2019-01-25T13:35:34.799Z,24.43
2019-01-25T13:38:04.429Z,23.90
2019-01-25T13:40:33.541Z,22.17
2019-01-25T13:43:02.626Z,22.80
2019-01-25T13:45:31.789Z,23.23
2019-01-25T13:48:00.932Z,24.17
2019-01-25T13:50:30.241Z,24.17
2019-01-25T13:52:59.250Z,25.30
2019-01-25T13:55:28.388Z,23.67
2019-01-25T13:57:57.432Z,25.13
2019-01-25T14:00:28.893Z,24.83
2019-01-25T14:02:58.176Z,25.10
2019-01-25T14:05:27.513Z,23.90
2019-01-25T14:07:56.820Z,23.93
2019-01-25T14:10:30.713Z,24.87
2019-01-25T14:12:59.812Z,26.03
2019-01-25T14:15:29.118Z,24.80
2019-01-25T14:17:58.425Z,25.50
2019-01-25T14:20:29.193Z,24.63
2019-01-25T14:22:58.317Z,26.33
2019-01-25T14:25:27.694Z,26.33
2019-01-25T14:27:56.856Z,26.83
2019-01-25T14:30:34.496Z,28.77
2019-01-25T14:33:03.963Z,26.43
2019-01-25T14:35:33.049Z,27.80
2019-01-25T14:38:02.312Z,27.23
2019-01-25T14:40:31.487Z,28.03
2019-01-25T14:43:00.552Z,27.10
2019-01-25T14:45:29.614Z,27.60
2019-01-25T14:47:58.716Z,27.17
2019-01-25T14:50:28.744Z,29.13
2019-01-25T14:52:59.171Z,27.80
2019-01-25T14:55:28.571Z,27.47
2019-01-25T14:57:58.241Z,27.83
2019-01-25T15:00:27.362Z,26.83
2019-01-25T15:02:56.546Z,28.17
2019-01-25T15:05:26.982Z,28.63
2019-01-25T15:07:56.018Z,30.87
2019-01-25T15:10:25.961Z,28.67
2019-01-25T15:12:58.936Z,29.30
2019-01-25T15:15:28.510Z,27.33
2019-01-25T15:17:57.685Z,29.23
2019-01-25T15:20:28.915Z,27.03
2019-01-25T15:22:58.059Z,26.67
2019-01-25T15:25:27.260Z,29.83
2019-01-25T15:27:56.386Z,29.93
2019-01-25T15:30:27.779Z,30.00
2019-01-25T15:32:56.937Z,30.23
2019-01-25T15:35:26.202Z,30.57
2019-01-25T15:37:55.367Z,32.40
2019-01-25T15:40:24.820Z,30.90
2019-01-25T15:42:54.953Z,28.50
2019-01-25T15:45:24.286Z,27.90
2019-01-25T15:47:53.450Z,29.27
2019-01-25T15:50:24.833Z,28.90
2019-01-25T15:52:53.960Z,29.67
2019-01-25T15:55:23.518Z,29.07
2019-01-25T15:57:52.603Z,30.60
2019-01-25T16:00:22.969Z,30.50
2019-01-25T16:02:52.117Z,30.07
2019-01-25T16:05:24.070Z,28.60
2019-01-25T16:07:53.194Z,28.47
2019-01-25T16:10:22.936Z,29.37
2019-01-25T16:12:52.512Z,27.17
2019-01-25T16:15:23.964Z,27.57
2019-01-25T16:17:53.355Z,29.07
2019-01-25T16:20:25.747Z,30.60
2019-01-25T16:22:55.071Z,29.87
2019-01-25T16:25:27.085Z,31.43
2019-01-25T16:27:56.224Z,30.43
2019-01-25T16:30:27.647Z,30.00
2019-01-25T16:32:56.724Z,30.50
2019-01-25T16:35:26.937Z,29.93
2019-01-25T16:37:56.754Z,31.23
2019-01-25T16:40:26.926Z,30.27
2019-01-25T16:42:57.898Z,31.33
2019-01-25T16:45:41.156Z,31.17
2019-01-25T16:48:10.634Z,31.57
2019-01-25T16:50:40.020Z,33.13
2019-01-25T16:53:11.421Z,31.43
2019-01-25T16:55:40.665Z,32.23
2019-01-25T16:58:09.909Z,30.87
2019-01-25T17:00:41.548Z,34.23
2019-01-25T17:03:10.828Z,30.37
2019-01-25T17:05:40.149Z,31.57
2019-01-25T17:08:09.321Z,30.03
2019-01-25T17:10:38.530Z,32.10
2019-01-25T17:13:07.693Z,32.90
2019-01-25T17:15:36.717Z,31.53
2019-01-25T17:18:08.058Z,32.53
2019-01-25T17:20:37.198Z,32.47
2019-01-25T17:23:06.368Z,31.17
2019-01-25T17:25:35.582Z,33.30
2019-01-25T17:28:06.244Z,33.13
2019-01-25T17:30:36.068Z,31.73
2019-01-25T17:33:05.440Z,33.40
2019-01-25T17:35:34.801Z,35.17
2019-01-25T17:38:10.943Z,32.80
2019-01-25T17:40:46.961Z,33.73
2019-01-25T17:43:16.548Z,34.60
2019-01-25T17:45:45.657Z,35.17
2019-01-25T17:48:14.696Z,33.20
2019-01-25T17:50:43.889Z,34.90
2019-01-25T17:53:12.946Z,31.80
2019-01-25T17:55:42.081Z,33.37
2019-01-25T17:58:11.185Z,35.77
2019-01-25T18:00:44.321Z,32.87
2019-01-25T18:03:14.908Z,33.77
2019-01-25T18:05:45.956Z,32.67
2019-01-25T18:08:14.705Z,32.43
2019-01-25T18:10:43.857Z,33.13
2019-01-25T18:13:13.122Z,33.80
2019-01-25T18:15:42.251Z,32.93
2019-01-25T18:18:11.681Z,33.73
2019-01-25T18:20:41.036Z,33.40
2019-01-25T18:23:10.086Z,35.03
2019-01-25T18:25:48.190Z,35.10
2019-01-25T18:28:21.049Z,35.57
2019-01-25T18:30:54.261Z,34.07
2019-01-25T18:33:23.367Z,34.50
2019-01-25T18:35:52.590Z,34.20
2019-01-25T18:38:21.805Z,35.80
2019-01-25T18:40:50.964Z,36.33
2019-01-25T18:43:20.650Z,36.40
2019-01-25T18:45:49.721Z,37.90
2019-01-25T18:48:18.844Z,36.60
2019-01-25T18:50:47.991Z,35.20
2019-01-25T18:53:17.215Z,35.53
2019-01-25T18:55:46.308Z,35.80
2019-01-25T18:58:15.381Z,34.67
2019-01-25T19:00:44.557Z,35.90
2019-01-25T19:03:13.692Z,36.43
2019-01-25T19:05:42.768Z,36.40
2019-01-25T19:08:11.900Z,36.73
2019-01-25T19:10:41.243Z,36.93
2019-01-25T19:13:10.393Z,36.63
2019-01-25T19:15:39.459Z,36.90
2019-01-25T19:18:08.672Z,35.03
2019-01-25T19:20:37.793Z,34.17
2019-01-25T19:23:06.935Z,36.33
2019-01-25T19:25:36.031Z,35.60
2019-01-25T19:28:05.184Z,36.07
2019-01-25T19:30:36.936Z,34.13
2019-01-25T19:33:06.360Z,34.30
2019-01-25T19:35:35.615Z,32.33
2019-01-25T19:38:05.476Z,32.03
2019-01-25T19:40:35.057Z,33.47
2019-01-25T19:43:04.572Z,34.63
2019-01-25T19:45:33.657Z,34.27
2019-01-25T19:48:02.800Z,33.90
2019-01-25T19:50:32.436Z,32.87
2019-01-25T19:53:01.621Z,32.73
2019-01-25T19:55:30.857Z,33.23
2019-01-25T19:58:00.384Z,31.27
2019-01-25T20:00:32.142Z,30.47
2019-01-25T20:03:01.533Z,30.10
2019-01-25T20:05:31.459Z,28.60
2019-01-25T20:08:00.744Z,28.20
2019-01-25T20:10:30.079Z,26.07
2019-01-25T20:12:59.269Z,24.63
2019-01-25T20:15:28.603Z,22.27
2019-01-25T20:17:59.316Z,21.87
2019-01-25T20:20:30.980Z,22.20
2019-01-25T20:23:00.273Z,21.53
2019-01-25T20:25:29.339Z,21.17
2019-01-25T20:27:58.406Z,22.40
2019-01-25T20:30:29.514Z,22.97
2019-01-25T20:32:59.858Z,23.83
2019-01-25T20:35:31.196Z,20.83
2019-01-25T20:38:00.296Z,22.87
2019-01-25T20:40:29.477Z,23.40
2019-01-25T20:42:58.666Z,20.93
2019-01-25T20:45:30.029Z,21.73
2019-01-25T20:47:59.123Z,22.77
2019-01-25T20:50:29.341Z,22.67
2019-01-25T20:52:58.469Z,23.03
2019-01-25T20:55:27.701Z,22.47
2019-01-25T20:57:58.583Z,20.73
2019-01-25T21:00:30.367Z,23.03
2019-01-25T21:02:59.578Z,22.77
2019-01-25T21:05:28.975Z,21.73
2019-01-25T21:07:58.720Z,21.33
2019-01-25T21:10:27.909Z,21.50
2019-01-25T21:12:57.422Z,22.37
2019-01-25T21:15:34.858Z,23.73
2019-01-25T21:17:58.215Z,21.30
2019-01-25T21:20:32.612Z,21.73
2019-01-25T21:23:02.301Z,21.43
2019-01-25T21:25:31.660Z,21.47
2019-01-25T21:28:00.847Z,20.60
2019-01-25T21:30:31.610Z,22.30
2019-01-25T21:33:02.631Z,21.73
2019-01-25T21:35:31.688Z,21.60
2019-01-25T21:38:00.858Z,21.43
2019-01-25T21:40:31.201Z,22.00
2019-01-25T21:43:00.344Z,21.53
2019-01-25T21:45:34.623Z,23.30
2019-01-25T21:48:06.376Z,22.47
2019-01-25T21:50:37.758Z,22.20
2019-01-25T21:53:07.565Z,22.90
2019-01-25T21:55:36.802Z,21.77
2019-01-25T21:58:06.036Z,22.00
2019-01-25T22:00:35.523Z,21.97
2019-01-25T22:03:05.964Z,21.97
2019-01-25T22:05:35.177Z,22.33
2019-01-25T22:08:06.187Z,23.63
2019-01-25T22:10:38.296Z,22.23
2019-01-25T22:13:07.529Z,22.13
2019-01-25T22:15:36.625Z,22.60
2019-01-25T22:18:06.032Z,22.93
2019-01-25T22:20:35.128Z,22.43
2019-01-25T22:23:04.497Z,22.73
2019-01-25T22:25:33.589Z,23.00
2019-01-25T22:28:02.718Z,23.10
2019-01-25T22:30:31.820Z,21.73
2019-01-25T22:33:01.018Z,21.70
2019-01-25T22:35:30.097Z,22.77
2019-01-25T22:37:59.209Z,23.10
2019-01-25T22:40:30.457Z,23.60
2019-01-25T22:42:59.779Z,22.37
2019-01-25T22:45:30.626Z,22.17
2019-01-25T22:48:01.420Z,23.40
2019-01-25T22:50:35.859Z,23.73
2019-01-25T22:53:05.137Z,22.13
2019-01-25T22:55:35.285Z,22.00
2019-01-25T22:58:04.843Z,21.90
2019-01-25T23:00:58.378Z,20.90
2019-01-25T23:03:53.023Z,22.97
2019-01-25T23:06:36.404Z,22.20
2019-01-25T23:09:14.629Z,24.53
2019-01-25T23:11:43.712Z,24.30
2019-01-25T23:14:12.942Z,23.57
2019-01-25T23:16:42.072Z,23.03
2019-01-25T23:19:11.556Z,24.13
2019-01-25T23:21:40.683Z,23.17
2019-01-25T23:24:09.836Z,24.33
2019-01-25T23:26:39.386Z,25.17
2019-01-25T23:29:08.796Z,26.83
2019-01-25T23:31:38.095Z,26.90
2019-01-25T23:34:07.480Z,26.47
2019-01-25T23:36:36.602Z,26.73
2019-01-25T23:39:09.802Z,27.43
2019-01-25T23:41:42.424Z,28.77
2019-01-25T23:44:12.951Z,28.20
2019-01-25T23:46:42.368Z,31.57
2019-01-25T23:49:11.615Z,29.73
2019-01-25T23:51:40.585Z,28.93
2019-01-25T23:54:09.704Z,28.17
2019-01-25T23:56:38.827Z,28.03
2019-01-25T23:59:07.780Z,28.73
